sensor_id;sensor_type;location;lat;lon;timestamp;P1;durP1;ratioP1;P2;durP2;ratioP2
74626;SDS011;63132;52.268;5.192;2023-06-22T00:00:40;11.75;;;6.30;;
74626;SDS011;63132;52.268;5.192;2023-06-22T00:03:07;10.95;;;5.28;;
74626;SDS011;63132;52.268;5.192;2023-06-22T00:05:32;8.43;;;5.00;;
74626;SDS011;63132;52.268;5.192;2023-06-22T00:08:01;10.45;;;5.85;;
74626;SDS011;63132;52.268;5.192;2023-06-22T00:10:28;7.95;;;5.30;;
74626;SDS011;63132;52.268;5.192;2023-06-22T00:12:53;11.20;;;5.65;;
74626;SDS011;63132;52.268;5.192;2023-06-22T00:15:18;9.75;;;6.18;;
74626;SDS011;63132;52.268;5.192;2023-06-22T00:17:45;7.93;;;5.60;;
74626;SDS011;63132;52.268;5.192;2023-06-22T00:20:10;9.60;;;5.53;;
74626;SDS011;63132;52.268;5.192;2023-06-22T00:22:36;9.13;;;5.85;;
74626;SDS011;63132;52.268;5.192;2023-06-22T00:25:05;11.30;;;5.80;;
74626;SDS011;63132;52.268;5.192;2023-06-22T00:27:34;8.85;;;5.60;;
74626;SDS011;63132;52.268;5.192;2023-06-22T00:29:59;8.23;;;5.70;;
74626;SDS011;63132;52.268;5.192;2023-06-22T00:32:25;10.75;;;6.28;;
74626;SDS011;63132;52.268;5.192;2023-06-22T00:34:50;12.70;;;6.50;;
74626;SDS011;63132;52.268;5.192;2023-06-22T00:37:15;9.10;;;6.18;;
74626;SDS011;63132;52.268;5.192;2023-06-22T00:39:42;10.82;;;6.50;;
74626;SDS011;63132;52.268;5.192;2023-06-22T00:42:08;10.43;;;6.13;;
74626;SDS011;63132;52.268;5.192;2023-06-22T00:44:33;10.68;;;6.35;;
74626;SDS011;63132;52.268;5.192;2023-06-22T00:46:59;11.80;;;6.47;;
74626;SDS011;63132;52.268;5.192;2023-06-22T00:49:25;9.27;;;6.15;;
74626;SDS011;63132;52.268;5.192;2023-06-22T00:51:50;11.50;;;6.70;;
74626;SDS011;63132;52.268;5.192;2023-06-22T00:54:17;9.80;;;6.63;;
74626;SDS011;63132;52.268;5.192;2023-06-22T00:56:55;12.95;;;6.35;;
74626;SDS011;63132;52.268;5.192;2023-06-22T00:59:23;14.43;;;7.03;;
74626;SDS011;63132;52.268;5.192;2023-06-22T01:01:49;13.23;;;7.38;;
74626;SDS011;63132;52.268;5.192;2023-06-22T01:04:14;9.65;;;6.32;;
74626;SDS011;63132;52.268;5.192;2023-06-22T01:10:01;13.18;;;7.75;;
74626;SDS011;63132;52.268;5.192;2023-06-22T01:17:51;12.60;;;7.00;;
74626;SDS011;63132;52.268;5.192;2023-06-22T01:20:18;12.77;;;8.00;;
74626;SDS011;63132;52.268;5.192;2023-06-22T01:23:09;12.20;;;7.85;;
74626;SDS011;63132;52.268;5.192;2023-06-22T01:25:33;13.98;;;7.28;;
74626;SDS011;63132;52.268;5.192;2023-06-22T01:30:55;15.50;;;8.30;;
74626;SDS011;63132;52.268;5.192;2023-06-22T01:33:34;13.38;;;8.35;;
74626;SDS011;63132;52.268;5.192;2023-06-22T01:36:02;14.70;;;8.93;;
74626;SDS011;63132;52.268;5.192;2023-06-22T01:38:29;16.45;;;9.43;;
74626;SDS011;63132;52.268;5.192;2023-06-22T01:40:56;16.85;;;9.57;;
74626;SDS011;63132;52.268;5.192;2023-06-22T01:43:22;17.48;;;10.60;;
74626;SDS011;63132;52.268;5.192;2023-06-22T01:45:50;13.07;;;9.02;;
74626;SDS011;63132;52.268;5.192;2023-06-22T01:48:17;15.48;;;8.77;;
74626;SDS011;63132;52.268;5.192;2023-06-22T01:50:43;17.83;;;9.50;;
74626;SDS011;63132;52.268;5.192;2023-06-22T01:53:08;17.65;;;10.93;;
74626;SDS011;63132;52.268;5.192;2023-06-22T01:55:34;21.70;;;10.20;;
74626;SDS011;63132;52.268;5.192;2023-06-22T01:57:59;22.80;;;10.88;;
74626;SDS011;63132;52.268;5.192;2023-06-22T02:00:25;29.05;;;16.55;;
74626;SDS011;63132;52.268;5.192;2023-06-22T02:03:03;28.17;;;17.52;;
74626;SDS011;63132;52.268;5.192;2023-06-22T02:05:36;28.90;;;17.25;;
74626;SDS011;63132;52.268;5.192;2023-06-22T02:08:11;28.20;;;18.23;;
74626;SDS011;63132;52.268;5.192;2023-06-22T02:15:53;28.30;;;15.65;;
74626;SDS011;63132;52.268;5.192;2023-06-22T02:18:19;26.38;;;15.85;;
74626;SDS011;63132;52.268;5.192;2023-06-22T02:20:45;28.42;;;15.20;;
74626;SDS011;63132;52.268;5.192;2023-06-22T02:23:11;26.23;;;15.10;;
74626;SDS011;63132;52.268;5.192;2023-06-22T02:25:36;28.42;;;16.70;;
74626;SDS011;63132;52.268;5.192;2023-06-22T02:28:02;26.50;;;15.80;;
74626;SDS011;63132;52.268;5.192;2023-06-22T02:30:28;29.88;;;17.50;;
74626;SDS011;63132;52.268;5.192;2023-06-22T02:32:53;30.55;;;16.70;;
74626;SDS011;63132;52.268;5.192;2023-06-22T02:35:28;32.83;;;17.65;;
74626;SDS011;63132;52.268;5.192;2023-06-22T02:37:57;29.77;;;16.85;;
74626;SDS011;63132;52.268;5.192;2023-06-22T02:40:25;30.60;;;15.93;;
74626;SDS011;63132;52.268;5.192;2023-06-22T02:42:51;27.77;;;15.63;;
74626;SDS011;63132;52.268;5.192;2023-06-22T02:45:17;27.02;;;17.05;;
74626;SDS011;63132;52.268;5.192;2023-06-22T02:47:42;26.92;;;16.15;;
74626;SDS011;63132;52.268;5.192;2023-06-22T02:50:08;27.88;;;17.27;;
74626;SDS011;63132;52.268;5.192;2023-06-22T02:52:33;26.15;;;16.00;;
74626;SDS011;63132;52.268;5.192;2023-06-22T02:54:59;34.90;;;19.23;;
74626;SDS011;63132;52.268;5.192;2023-06-22T02:57:24;35.00;;;19.02;;
74626;SDS011;63132;52.268;5.192;2023-06-22T02:59:50;32.70;;;19.05;;
74626;SDS011;63132;52.268;5.192;2023-06-22T03:02:15;31.65;;;18.23;;
74626;SDS011;63132;52.268;5.192;2023-06-22T03:04:41;30.65;;;19.45;;
74626;SDS011;63132;52.268;5.192;2023-06-22T03:07:07;33.88;;;18.77;;
74626;SDS011;63132;52.268;5.192;2023-06-22T03:09:32;34.42;;;19.20;;
74626;SDS011;63132;52.268;5.192;2023-06-22T03:11:58;31.27;;;19.25;;
74626;SDS011;63132;52.268;5.192;2023-06-22T03:14:23;32.30;;;19.73;;
74626;SDS011;63132;52.268;5.192;2023-06-22T03:16:48;30.52;;;18.45;;
74626;SDS011;63132;52.268;5.192;2023-06-22T03:19:14;28.88;;;18.30;;
74626;SDS011;63132;52.268;5.192;2023-06-22T03:21:39;30.60;;;18.75;;
74626;SDS011;63132;52.268;5.192;2023-06-22T03:24:08;30.25;;;18.10;;
74626;SDS011;63132;52.268;5.192;2023-06-22T03:26:34;31.92;;;17.83;;
74626;SDS011;63132;52.268;5.192;2023-06-22T03:28:59;31.92;;;18.90;;
74626;SDS011;63132;52.268;5.192;2023-06-22T03:31:25;31.45;;;18.85;;
74626;SDS011;63132;52.268;5.192;2023-06-22T03:33:50;28.75;;;17.27;;
74626;SDS011;63132;52.268;5.192;2023-06-22T03:36:16;28.52;;;18.08;;
74626;SDS011;63132;52.268;5.192;2023-06-22T03:38:46;29.65;;;19.35;;
74626;SDS011;63132;52.268;5.192;2023-06-22T03:41:12;30.98;;;17.95;;
74626;SDS011;63132;52.268;5.192;2023-06-22T03:43:37;31.55;;;17.95;;
74626;SDS011;63132;52.268;5.192;2023-06-22T03:46:03;30.55;;;18.45;;
74626;SDS011;63132;52.268;5.192;2023-06-22T03:48:29;32.80;;;18.80;;
74626;SDS011;63132;52.268;5.192;2023-06-22T03:50:54;33.80;;;19.35;;
74626;SDS011;63132;52.268;5.192;2023-06-22T03:53:19;31.33;;;18.45;;
74626;SDS011;63132;52.268;5.192;2023-06-22T03:55:48;30.38;;;18.73;;
74626;SDS011;63132;52.268;5.192;2023-06-22T03:58:20;31.00;;;18.45;;
74626;SDS011;63132;52.268;5.192;2023-06-22T04:00:50;29.88;;;18.33;;
74626;SDS011;63132;52.268;5.192;2023-06-22T04:03:16;32.40;;;18.63;;
74626;SDS011;63132;52.268;5.192;2023-06-22T04:05:43;33.50;;;19.13;;
74626;SDS011;63132;52.268;5.192;2023-06-22T04:08:10;36.50;;;19.98;;
74626;SDS011;63132;52.268;5.192;2023-06-22T04:10:35;34.35;;;20.30;;
74626;SDS011;63132;52.268;5.192;2023-06-22T04:13:01;39.47;;;21.88;;
74626;SDS011;63132;52.268;5.192;2023-06-22T04:15:26;38.58;;;22.23;;
74626;SDS011;63132;52.268;5.192;2023-06-22T04:17:53;47.08;;;26.80;;
74626;SDS011;63132;52.268;5.192;2023-06-22T04:20:19;51.10;;;29.38;;
74626;SDS011;63132;52.268;5.192;2023-06-22T04:22:44;47.88;;;27.20;;
74626;SDS011;63132;52.268;5.192;2023-06-22T04:25:11;44.83;;;25.77;;
74626;SDS011;63132;52.268;5.192;2023-06-22T04:27:36;49.28;;;27.63;;
74626;SDS011;63132;52.268;5.192;2023-06-22T04:30:04;51.05;;;29.13;;
74626;SDS011;63132;52.268;5.192;2023-06-22T04:32:31;57.53;;;32.40;;
74626;SDS011;63132;52.268;5.192;2023-06-22T04:34:57;58.80;;;32.67;;
74626;SDS011;63132;52.268;5.192;2023-06-22T04:37:23;68.53;;;35.03;;
74626;SDS011;63132;52.268;5.192;2023-06-22T04:39:49;79.32;;;37.63;;
74626;SDS011;63132;52.268;5.192;2023-06-22T04:42:15;73.05;;;38.65;;
74626;SDS011;63132;52.268;5.192;2023-06-22T04:44:40;70.00;;;37.47;;
74626;SDS011;63132;52.268;5.192;2023-06-22T04:47:06;77.30;;;40.33;;
74626;SDS011;63132;52.268;5.192;2023-06-22T04:49:33;73.57;;;40.55;;
74626;SDS011;63132;52.268;5.192;2023-06-22T04:52:06;77.03;;;40.80;;
74626;SDS011;63132;52.268;5.192;2023-06-22T04:54:32;73.00;;;39.35;;
74626;SDS011;63132;52.268;5.192;2023-06-22T04:56:59;77.32;;;40.97;;
74626;SDS011;63132;52.268;5.192;2023-06-22T04:59:29;80.28;;;40.97;;
74626;SDS011;63132;52.268;5.192;2023-06-22T05:01:56;79.68;;;42.47;;
74626;SDS011;63132;52.268;5.192;2023-06-22T05:04:22;72.18;;;40.55;;
74626;SDS011;63132;52.268;5.192;2023-06-22T05:06:48;72.88;;;41.13;;
74626;SDS011;63132;52.268;5.192;2023-06-22T05:09:14;72.80;;;41.15;;
74626;SDS011;63132;52.268;5.192;2023-06-22T05:11:40;69.45;;;40.55;;
74626;SDS011;63132;52.268;5.192;2023-06-22T05:14:05;65.97;;;40.67;;
74626;SDS011;63132;52.268;5.192;2023-06-22T05:16:30;69.95;;;40.80;;
74626;SDS011;63132;52.268;5.192;2023-06-22T05:18:56;66.35;;;41.13;;
74626;SDS011;63132;52.268;5.192;2023-06-22T05:21:22;69.75;;;40.08;;
74626;SDS011;63132;52.268;5.192;2023-06-22T05:23:49;68.90;;;39.03;;
74626;SDS011;63132;52.268;5.192;2023-06-22T05:26:15;63.97;;;36.60;;
74626;SDS011;63132;52.268;5.192;2023-06-22T05:28:40;59.45;;;36.72;;
74626;SDS011;63132;52.268;5.192;2023-06-22T05:31:06;63.20;;;39.00;;
74626;SDS011;63132;52.268;5.192;2023-06-22T05:33:31;57.80;;;35.80;;
74626;SDS011;63132;52.268;5.192;2023-06-22T05:35:56;59.65;;;36.70;;
74626;SDS011;63132;52.268;5.192;2023-06-22T05:38:22;65.00;;;38.17;;
74626;SDS011;63132;52.268;5.192;2023-06-22T05:40:47;59.85;;;37.10;;
74626;SDS011;63132;52.268;5.192;2023-06-22T05:43:13;57.03;;;35.78;;
74626;SDS011;63132;52.268;5.192;2023-06-22T05:45:38;61.72;;;35.83;;
74626;SDS011;63132;52.268;5.192;2023-06-22T05:48:03;60.97;;;37.03;;
74626;SDS011;63132;52.268;5.192;2023-06-22T05:50:29;62.15;;;36.55;;
74626;SDS011;63132;52.268;5.192;2023-06-22T05:52:54;58.00;;;36.00;;
74626;SDS011;63132;52.268;5.192;2023-06-22T05:55:20;52.70;;;35.28;;
74626;SDS011;63132;52.268;5.192;2023-06-22T05:57:45;57.05;;;35.47;;
74626;SDS011;63132;52.268;5.192;2023-06-22T06:00:11;57.33;;;35.83;;
74626;SDS011;63132;52.268;5.192;2023-06-22T06:02:37;54.75;;;35.42;;
74626;SDS011;63132;52.268;5.192;2023-06-22T06:05:08;56.78;;;34.55;;
74626;SDS011;63132;52.268;5.192;2023-06-22T06:07:34;51.90;;;34.25;;
74626;SDS011;63132;52.268;5.192;2023-06-22T06:10:00;53.58;;;34.70;;
74626;SDS011;63132;52.268;5.192;2023-06-22T06:12:25;49.50;;;33.88;;
74626;SDS011;63132;52.268;5.192;2023-06-22T06:14:51;44.13;;;31.58;;
74626;SDS011;63132;52.268;5.192;2023-06-22T06:17:18;47.50;;;33.92;;
74626;SDS011;63132;52.268;5.192;2023-06-22T06:19:43;46.70;;;32.50;;
74626;SDS011;63132;52.268;5.192;2023-06-22T06:22:09;43.63;;;30.85;;
74626;SDS011;63132;52.268;5.192;2023-06-22T06:24:34;47.13;;;32.25;;
74626;SDS011;63132;52.268;5.192;2023-06-22T06:26:59;44.83;;;31.08;;
74626;SDS011;63132;52.268;5.192;2023-06-22T06:29:25;46.78;;;30.83;;
74626;SDS011;63132;52.268;5.192;2023-06-22T06:31:50;42.63;;;30.05;;
74626;SDS011;63132;52.268;5.192;2023-06-22T06:34:15;44.53;;;29.52;;
74626;SDS011;63132;52.268;5.192;2023-06-22T06:36:41;38.80;;;29.00;;
74626;SDS011;63132;52.268;5.192;2023-06-22T06:39:07;41.63;;;28.10;;
74626;SDS011;63132;52.268;5.192;2023-06-22T06:41:33;39.33;;;27.20;;
74626;SDS011;63132;52.268;5.192;2023-06-22T06:43:59;47.70;;;27.65;;
74626;SDS011;63132;52.268;5.192;2023-06-22T06:46:25;34.55;;;26.10;;
74626;SDS011;63132;52.268;5.192;2023-06-22T06:48:50;36.35;;;27.05;;
74626;SDS011;63132;52.268;5.192;2023-06-22T06:51:16;41.17;;;26.40;;
74626;SDS011;63132;52.268;5.192;2023-06-22T06:53:41;36.20;;;26.50;;
74626;SDS011;63132;52.268;5.192;2023-06-22T06:56:06;40.50;;;24.48;;
74626;SDS011;63132;52.268;5.192;2023-06-22T06:58:32;36.60;;;24.90;;
74626;SDS011;63132;52.268;5.192;2023-06-22T07:00:58;33.97;;;23.13;;
74626;SDS011;63132;52.268;5.192;2023-06-22T07:03:23;33.50;;;23.25;;
74626;SDS011;63132;52.268;5.192;2023-06-22T07:05:48;38.03;;;25.02;;
74626;SDS011;63132;52.268;5.192;2023-06-22T07:08:14;36.15;;;24.65;;
74626;SDS011;63132;52.268;5.192;2023-06-22T07:10:39;37.88;;;23.88;;
74626;SDS011;63132;52.268;5.192;2023-06-22T07:13:04;32.45;;;22.80;;
74626;SDS011;63132;52.268;5.192;2023-06-22T07:15:30;36.33;;;23.23;;
74626;SDS011;63132;52.268;5.192;2023-06-22T07:17:55;30.13;;;21.55;;
74626;SDS011;63132;52.268;5.192;2023-06-22T07:20:20;35.13;;;22.92;;
74626;SDS011;63132;52.268;5.192;2023-06-22T07:22:46;33.40;;;24.00;;
74626;SDS011;63132;52.268;5.192;2023-06-22T07:25:11;34.58;;;22.77;;
74626;SDS011;63132;52.268;5.192;2023-06-22T07:27:39;35.45;;;23.65;;
74626;SDS011;63132;52.268;5.192;2023-06-22T07:30:08;39.72;;;25.55;;
74626;SDS011;63132;52.268;5.192;2023-06-22T07:32:35;32.75;;;23.05;;
74626;SDS011;63132;52.268;5.192;2023-06-22T07:35:01;32.20;;;23.48;;
74626;SDS011;63132;52.268;5.192;2023-06-22T07:37:27;39.45;;;24.90;;
74626;SDS011;63132;52.268;5.192;2023-06-22T07:39:54;32.92;;;22.67;;
74626;SDS011;63132;52.268;5.192;2023-06-22T07:42:26;35.08;;;24.95;;
74626;SDS011;63132;52.268;5.192;2023-06-22T07:44:52;36.28;;;25.08;;
74626;SDS011;63132;52.268;5.192;2023-06-22T07:47:18;33.33;;;23.45;;
74626;SDS011;63132;52.268;5.192;2023-06-22T07:49:44;32.13;;;23.65;;
74626;SDS011;63132;52.268;5.192;2023-06-22T07:52:10;32.72;;;23.90;;
74626;SDS011;63132;52.268;5.192;2023-06-22T07:54:36;35.60;;;23.92;;
74626;SDS011;63132;52.268;5.192;2023-06-22T07:57:01;34.58;;;23.25;;
74626;SDS011;63132;52.268;5.192;2023-06-22T07:59:26;36.15;;;24.80;;
74626;SDS011;63132;52.268;5.192;2023-06-22T08:01:52;32.97;;;23.80;;
74626;SDS011;63132;52.268;5.192;2023-06-22T08:04:17;31.80;;;21.80;;
74626;SDS011;63132;52.268;5.192;2023-06-22T08:06:42;32.83;;;22.35;;
74626;SDS011;63132;52.268;5.192;2023-06-22T08:09:08;29.58;;;21.55;;
74626;SDS011;63132;52.268;5.192;2023-06-22T08:11:34;32.28;;;22.98;;
74626;SDS011;63132;52.268;5.192;2023-06-22T08:13:59;30.67;;;21.17;;
74626;SDS011;63132;52.268;5.192;2023-06-22T08:16:24;33.55;;;22.85;;
74626;SDS011;63132;52.268;5.192;2023-06-22T08:18:50;30.88;;;21.45;;
74626;SDS011;63132;52.268;5.192;2023-06-22T08:21:15;25.52;;;20.13;;
74626;SDS011;63132;52.268;5.192;2023-06-22T08:23:41;26.33;;;17.83;;
74626;SDS011;63132;52.268;5.192;2023-06-22T08:26:07;30.08;;;19.88;;
74626;SDS011;63132;52.268;5.192;2023-06-22T08:28:32;28.25;;;18.05;;
74626;SDS011;63132;52.268;5.192;2023-06-22T08:30:59;29.25;;;17.95;;
74626;SDS011;63132;52.268;5.192;2023-06-22T08:33:26;25.75;;;17.60;;
74626;SDS011;63132;52.268;5.192;2023-06-22T08:35:53;28.48;;;18.83;;
74626;SDS011;63132;52.268;5.192;2023-06-22T08:38:23;26.77;;;18.85;;
74626;SDS011;63132;52.268;5.192;2023-06-22T08:40:48;27.63;;;18.25;;
74626;SDS011;63132;52.268;5.192;2023-06-22T08:43:14;25.67;;;17.58;;
74626;SDS011;63132;52.268;5.192;2023-06-22T08:45:39;26.10;;;17.23;;
74626;SDS011;63132;52.268;5.192;2023-06-22T08:48:05;24.90;;;17.45;;
74626;SDS011;63132;52.268;5.192;2023-06-22T08:50:30;30.40;;;16.95;;
74626;SDS011;63132;52.268;5.192;2023-06-22T08:52:56;21.98;;;14.65;;
74626;SDS011;63132;52.268;5.192;2023-06-22T08:55:21;22.25;;;14.20;;
74626;SDS011;63132;52.268;5.192;2023-06-22T08:57:46;21.08;;;15.88;;
74626;SDS011;63132;52.268;5.192;2023-06-22T09:00:12;23.33;;;14.15;;
74626;SDS011;63132;52.268;5.192;2023-06-22T09:02:45;23.02;;;15.60;;
74626;SDS011;63132;52.268;5.192;2023-06-22T09:05:12;23.58;;;17.05;;
74626;SDS011;63132;52.268;5.192;2023-06-22T09:07:37;25.55;;;16.88;;
74626;SDS011;63132;52.268;5.192;2023-06-22T09:10:03;24.13;;;16.20;;
74626;SDS011;63132;52.268;5.192;2023-06-22T09:12:32;19.77;;;13.73;;
74626;SDS011;63132;52.268;5.192;2023-06-22T09:15:01;20.30;;;13.38;;
74626;SDS011;63132;52.268;5.192;2023-06-22T09:17:27;20.05;;;14.35;;
74626;SDS011;63132;52.268;5.192;2023-06-22T09:19:53;20.38;;;12.32;;
74626;SDS011;63132;52.268;5.192;2023-06-22T09:22:18;18.27;;;11.45;;
74626;SDS011;63132;52.268;5.192;2023-06-22T09:24:43;22.00;;;11.73;;
74626;SDS011;63132;52.268;5.192;2023-06-22T09:27:09;15.70;;;10.73;;
74626;SDS011;63132;52.268;5.192;2023-06-22T09:29:34;16.33;;;10.32;;
74626;SDS011;63132;52.268;5.192;2023-06-22T09:32:00;16.13;;;10.93;;
74626;SDS011;63132;52.268;5.192;2023-06-22T09:34:26;16.08;;;9.00;;
74626;SDS011;63132;52.268;5.192;2023-06-22T09:36:51;15.48;;;9.95;;
74626;SDS011;63132;52.268;5.192;2023-06-22T09:39:20;19.23;;;9.20;;
74626;SDS011;63132;52.268;5.192;2023-06-22T09:41:45;21.67;;;10.45;;
74626;SDS011;63132;52.268;5.192;2023-06-22T09:44:11;15.75;;;9.40;;
74626;SDS011;63132;52.268;5.192;2023-06-22T09:46:36;15.82;;;9.63;;
74626;SDS011;63132;52.268;5.192;2023-06-22T09:49:01;15.48;;;9.48;;
74626;SDS011;63132;52.268;5.192;2023-06-22T09:51:27;14.98;;;9.35;;
74626;SDS011;63132;52.268;5.192;2023-06-22T09:53:52;13.98;;;8.75;;
74626;SDS011;63132;52.268;5.192;2023-06-22T09:56:21;15.80;;;8.40;;
74626;SDS011;63132;52.268;5.192;2023-06-22T09:58:47;16.58;;;9.38;;
74626;SDS011;63132;52.268;5.192;2023-06-22T10:01:15;15.88;;;8.00;;
74626;SDS011;63132;52.268;5.192;2023-06-22T10:03:40;13.00;;;7.78;;
74626;SDS011;63132;52.268;5.192;2023-06-22T10:06:06;16.55;;;9.82;;
74626;SDS011;63132;52.268;5.192;2023-06-22T10:08:33;15.27;;;9.07;;
74626;SDS011;63132;52.268;5.192;2023-06-22T10:10:58;19.90;;;8.73;;
74626;SDS011;63132;52.268;5.192;2023-06-22T10:13:24;16.33;;;7.70;;
74626;SDS011;63132;52.268;5.192;2023-06-22T10:15:49;15.32;;;9.65;;
74626;SDS011;63132;52.268;5.192;2023-06-22T10:18:17;15.30;;;7.90;;
74626;SDS011;63132;52.268;5.192;2023-06-22T10:20:43;13.98;;;8.05;;
74626;SDS011;63132;52.268;5.192;2023-06-22T10:23:09;16.67;;;7.57;;
74626;SDS011;63132;52.268;5.192;2023-06-22T10:25:34;12.32;;;7.78;;
74626;SDS011;63132;52.268;5.192;2023-06-22T10:28:00;14.40;;;7.95;;
74626;SDS011;63132;52.268;5.192;2023-06-22T10:30:26;11.57;;;8.15;;
74626;SDS011;63132;52.268;5.192;2023-06-22T10:32:53;17.58;;;9.75;;
74626;SDS011;63132;52.268;5.192;2023-06-22T10:35:19;18.20;;;8.98;;
74626;SDS011;63132;52.268;5.192;2023-06-22T10:37:44;17.48;;;10.80;;
74626;SDS011;63132;52.268;5.192;2023-06-22T10:40:11;16.50;;;9.48;;
74626;SDS011;63132;52.268;5.192;2023-06-22T10:42:40;18.08;;;8.52;;
74626;SDS011;63132;52.268;5.192;2023-06-22T10:45:06;10.65;;;6.93;;
74626;SDS011;63132;52.268;5.192;2023-06-22T10:47:33;11.45;;;6.70;;
74626;SDS011;63132;52.268;5.192;2023-06-22T10:49:59;9.80;;;6.35;;
74626;SDS011;63132;52.268;5.192;2023-06-22T10:52:24;8.65;;;6.18;;
74626;SDS011;63132;52.268;5.192;2023-06-22T10:54:49;8.95;;;6.32;;
74626;SDS011;63132;52.268;5.192;2023-06-22T10:57:15;13.70;;;6.43;;
74626;SDS011;63132;52.268;5.192;2023-06-22T10:59:40;12.40;;;6.07;;
74626;SDS011;63132;52.268;5.192;2023-06-22T11:02:06;11.70;;;6.68;;
74626;SDS011;63132;52.268;5.192;2023-06-22T11:04:31;13.82;;;6.35;;
74626;SDS011;63132;52.268;5.192;2023-06-22T11:06:56;13.20;;;6.43;;
74626;SDS011;63132;52.268;5.192;2023-06-22T11:09:22;18.58;;;8.60;;
74626;SDS011;63132;52.268;5.192;2023-06-22T11:11:47;17.45;;;7.13;;
74626;SDS011;63132;52.268;5.192;2023-06-22T11:14:14;20.67;;;7.63;;
74626;SDS011;63132;52.268;5.192;2023-06-22T11:16:39;12.73;;;7.65;;
74626;SDS011;63132;52.268;5.192;2023-06-22T11:19:05;14.02;;;8.23;;
74626;SDS011;63132;52.268;5.192;2023-06-22T11:21:31;14.68;;;8.70;;
74626;SDS011;63132;52.268;5.192;2023-06-22T11:23:57;13.25;;;8.57;;
74626;SDS011;63132;52.268;5.192;2023-06-22T11:26:23;13.57;;;8.25;;
74626;SDS011;63132;52.268;5.192;2023-06-22T11:28:49;14.07;;;6.95;;
74626;SDS011;63132;52.268;5.192;2023-06-22T11:31:14;13.13;;;7.22;;
74626;SDS011;63132;52.268;5.192;2023-06-22T11:33:40;17.08;;;6.75;;
74626;SDS011;63132;52.268;5.192;2023-06-22T11:36:05;11.10;;;6.32;;
74626;SDS011;63132;52.268;5.192;2023-06-22T11:38:31;10.43;;;6.32;;
74626;SDS011;63132;52.268;5.192;2023-06-22T11:40:57;10.57;;;5.93;;
74626;SDS011;63132;52.268;5.192;2023-06-22T11:43:23;12.50;;;8.32;;
74626;SDS011;63132;52.268;5.192;2023-06-22T11:45:49;12.60;;;9.20;;
74626;SDS011;63132;52.268;5.192;2023-06-22T11:48:15;13.48;;;8.60;;
74626;SDS011;63132;52.268;5.192;2023-06-22T11:50:41;14.82;;;8.85;;
74626;SDS011;63132;52.268;5.192;2023-06-22T11:53:06;12.80;;;9.70;;
74626;SDS011;63132;52.268;5.192;2023-06-22T11:55:31;19.75;;;11.48;;
74626;SDS011;63132;52.268;5.192;2023-06-22T11:57:57;16.52;;;11.75;;
74626;SDS011;63132;52.268;5.192;2023-06-22T12:00:28;18.42;;;11.93;;
74626;SDS011;63132;52.268;5.192;2023-06-22T12:02:54;18.23;;;11.38;;
74626;SDS011;63132;52.268;5.192;2023-06-22T12:05:21;18.65;;;11.80;;
74626;SDS011;63132;52.268;5.192;2023-06-22T12:07:47;17.02;;;12.23;;
74626;SDS011;63132;52.268;5.192;2023-06-22T12:10:13;25.35;;;14.55;;
74626;SDS011;63132;52.268;5.192;2023-06-22T12:12:39;22.48;;;14.23;;
74626;SDS011;63132;52.268;5.192;2023-06-22T12:15:04;20.35;;;14.43;;
74626;SDS011;63132;52.268;5.192;2023-06-22T12:17:30;19.55;;;13.27;;
74626;SDS011;63132;52.268;5.192;2023-06-22T12:19:56;22.05;;;14.98;;
74626;SDS011;63132;52.268;5.192;2023-06-22T12:22:21;20.67;;;14.48;;
74626;SDS011;63132;52.268;5.192;2023-06-22T12:24:47;22.13;;;15.52;;
74626;SDS011;63132;52.268;5.192;2023-06-22T12:27:12;20.55;;;14.32;;
74626;SDS011;63132;52.268;5.192;2023-06-22T12:29:37;19.38;;;14.95;;
74626;SDS011;63132;52.268;5.192;2023-06-22T12:32:03;20.15;;;13.90;;
74626;SDS011;63132;52.268;5.192;2023-06-22T12:34:29;20.67;;;13.23;;
74626;SDS011;63132;52.268;5.192;2023-06-22T12:36:54;18.33;;;14.25;;
74626;SDS011;63132;52.268;5.192;2023-06-22T12:39:19;17.80;;;13.30;;
74626;SDS011;63132;52.268;5.192;2023-06-22T12:41:45;18.77;;;13.55;;
74626;SDS011;63132;52.268;5.192;2023-06-22T12:44:10;17.75;;;12.05;;
74626;SDS011;63132;52.268;5.192;2023-06-22T12:46:36;16.77;;;11.40;;
74626;SDS011;63132;52.268;5.192;2023-06-22T12:49:03;16.85;;;11.07;;
74626;SDS011;63132;52.268;5.192;2023-06-22T12:51:29;14.93;;;10.98;;
74626;SDS011;63132;52.268;5.192;2023-06-22T12:53:55;15.52;;;11.32;;
74626;SDS011;63132;52.268;5.192;2023-06-22T12:56:21;16.73;;;10.18;;
74626;SDS011;63132;52.268;5.192;2023-06-22T12:58:46;13.80;;;10.18;;
74626;SDS011;63132;52.268;5.192;2023-06-22T13:01:12;15.60;;;10.50;;
74626;SDS011;63132;52.268;5.192;2023-06-22T13:03:37;15.45;;;10.45;;
74626;SDS011;63132;52.268;5.192;2023-06-22T13:06:03;14.05;;;9.60;;
74626;SDS011;63132;52.268;5.192;2023-06-22T13:08:28;11.68;;;7.90;;
74626;SDS011;63132;52.268;5.192;2023-06-22T13:10:54;16.83;;;9.18;;
74626;SDS011;63132;52.268;5.192;2023-06-22T13:13:23;14.35;;;9.15;;
74626;SDS011;63132;52.268;5.192;2023-06-22T13:15:49;14.98;;;10.25;;
74626;SDS011;63132;52.268;5.192;2023-06-22T13:18:15;17.48;;;10.32;;
74626;SDS011;63132;52.268;5.192;2023-06-22T13:20:40;14.23;;;9.98;;
74626;SDS011;63132;52.268;5.192;2023-06-22T13:23:06;13.18;;;10.15;;
74626;SDS011;63132;52.268;5.192;2023-06-22T13:25:31;15.32;;;10.65;;
74626;SDS011;63132;52.268;5.192;2023-06-22T13:27:57;14.70;;;11.07;;
74626;SDS011;63132;52.268;5.192;2023-06-22T13:30:22;12.48;;;10.05;;
74626;SDS011;63132;52.268;5.192;2023-06-22T13:32:47;19.55;;;11.43;;
74626;SDS011;63132;52.268;5.192;2023-06-22T13:35:13;16.38;;;12.27;;
74626;SDS011;63132;52.268;5.192;2023-06-22T13:37:38;16.90;;;11.70;;
74626;SDS011;63132;52.268;5.192;2023-06-22T13:40:07;18.85;;;12.77;;
74626;SDS011;63132;52.268;5.192;2023-06-22T13:42:33;22.88;;;14.23;;
74626;SDS011;63132;52.268;5.192;2023-06-22T13:44:58;17.35;;;13.52;;
74626;SDS011;63132;52.268;5.192;2023-06-22T13:47:24;18.92;;;14.05;;
74626;SDS011;63132;52.268;5.192;2023-06-22T13:49:49;15.10;;;12.48;;
74626;SDS011;63132;52.268;5.192;2023-06-22T13:52:15;23.33;;;12.88;;
74626;SDS011;63132;52.268;5.192;2023-06-22T13:54:40;17.55;;;12.15;;
74626;SDS011;63132;52.268;5.192;2023-06-22T13:57:05;22.13;;;12.88;;
74626;SDS011;63132;52.268;5.192;2023-06-22T13:59:31;21.30;;;14.18;;
74626;SDS011;63132;52.268;5.192;2023-06-22T14:01:56;16.58;;;12.75;;
74626;SDS011;63132;52.268;5.192;2023-06-22T14:04:25;16.48;;;12.77;;
74626;SDS011;63132;52.268;5.192;2023-06-22T14:06:50;16.60;;;13.55;;
74626;SDS011;63132;52.268;5.192;2023-06-22T14:09:16;17.77;;;14.25;;
74626;SDS011;63132;52.268;5.192;2023-06-22T14:11:41;19.17;;;13.88;;
74626;SDS011;63132;52.268;5.192;2023-06-22T14:14:06;21.10;;;13.52;;
74626;SDS011;63132;52.268;5.192;2023-06-22T14:16:32;21.63;;;14.50;;
74626;SDS011;63132;52.268;5.192;2023-06-22T14:18:57;20.23;;;13.88;;
74626;SDS011;63132;52.268;5.192;2023-06-22T14:21:23;19.05;;;14.07;;
74626;SDS011;63132;52.268;5.192;2023-06-22T14:23:48;19.67;;;15.63;;
74626;SDS011;63132;52.268;5.192;2023-06-22T14:26:17;24.50;;;16.80;;
74626;SDS011;63132;52.268;5.192;2023-06-22T14:28:44;22.85;;;16.23;;
74626;SDS011;63132;52.268;5.192;2023-06-22T14:31:15;22.75;;;16.15;;
74626;SDS011;63132;52.268;5.192;2023-06-22T14:33:45;23.33;;;16.73;;
74626;SDS011;63132;52.268;5.192;2023-06-22T14:36:12;22.58;;;17.58;;